sensor_id;sensor_type;location;lat;lon;timestamp;temperature;humidity
67748;HTU21D;54543;50.712;6.070;2023-07-30T00:01:14;16.67;96.81
67748;HTU21D;54543;50.712;6.070;2023-07-30T00:03:39;16.64;96.55
67748;HTU21D;54543;50.712;6.070;2023-07-30T00:06:05;16.63;96.52
67748;HTU21D;54543;50.712;6.070;2023-07-30T00:08:30;16.60;96.39
67748;HTU21D;54543;50.712;6.070;2023-07-30T00:10:57;16.57;96.04
67748;HTU21D;54543;50.712;6.070;2023-07-30T00:13:23;16.51;96.16
67748;HTU21D;54543;50.712;6.070;2023-07-30T00:15:48;16.49;95.83
67748;HTU21D;54543;50.712;6.070;2023-07-30T00:18:15;16.46;95.68
67748;HTU21D;54543;50.712;6.070;2023-07-30T00:20:40;16.43;95.72
67748;HTU21D;54543;50.712;6.070;2023-07-30T00:23:06;16.39;95.75
67748;HTU21D;54543;50.712;6.070;2023-07-30T00:25:31;16.37;95.57
67748;HTU21D;54543;50.712;6.070;2023-07-30T00:27:57;16.35;95.39
67748;HTU21D;54543;50.712;6.070;2023-07-30T00:30:22;16.33;95.42
67748;HTU21D;54543;50.712;6.070;2023-07-30T00:32:48;16.31;95.37
67748;HTU21D;54543;50.712;6.070;2023-07-30T00:35:16;16.31;94.81
67748;HTU21D;54543;50.712;6.070;2023-07-30T00:37:42;16.29;94.98
67748;HTU21D;54543;50.712;6.070;2023-07-30T00:40:08;16.32;94.67
67748;HTU21D;54543;50.712;6.070;2023-07-30T00:42:33;16.29;95.01
67748;HTU21D;54543;50.712;6.070;2023-07-30T00:44:59;16.33;94.86
67748;HTU21D;54543;50.712;6.070;2023-07-30T00:47:25;16.34;94.52
67748;HTU21D;54543;50.712;6.070;2023-07-30T00:49:52;16.35;94.85
67748;HTU21D;54543;50.712;6.070;2023-07-30T00:52:20;16.40;94.79
67748;HTU21D;54543;50.712;6.070;2023-07-30T00:54:47;16.45;94.75
67748;HTU21D;54543;50.712;6.070;2023-07-30T00:57:14;16.50;94.26
67748;HTU21D;54543;50.712;6.070;2023-07-30T00:59:40;16.51;93.62
67748;HTU21D;54543;50.712;6.070;2023-07-30T01:02:06;16.52;93.42
67748;HTU21D;54543;50.712;6.070;2023-07-30T01:04:32;16.54;92.79
67748;HTU21D;54543;50.712;6.070;2023-07-30T01:06:57;16.52;92.32
67748;HTU21D;54543;50.712;6.070;2023-07-30T01:09:23;16.52;92.72
67748;HTU21D;54543;50.712;6.070;2023-07-30T01:11:51;16.54;92.82
67748;HTU21D;54543;50.712;6.070;2023-07-30T01:14:18;16.56;92.71
67748;HTU21D;54543;50.712;6.070;2023-07-30T01:16:44;16.58;91.92
67748;HTU21D;54543;50.712;6.070;2023-07-30T01:19:10;16.56;92.18
67748;HTU21D;54543;50.712;6.070;2023-07-30T01:21:36;16.56;92.26
67748;HTU21D;54543;50.712;6.070;2023-07-30T01:24:02;16.57;91.78
67748;HTU21D;54543;50.712;6.070;2023-07-30T01:26:33;16.58;92.04
67748;HTU21D;54543;50.712;6.070;2023-07-30T01:29:00;16.57;91.73
67748;HTU21D;54543;50.712;6.070;2023-07-30T01:31:27;16.59;91.84
67748;HTU21D;54543;50.712;6.070;2023-07-30T01:33:56;16.57;91.60
67748;HTU21D;54543;50.712;6.070;2023-07-30T01:36:22;16.56;91.76
67748;HTU21D;54543;50.712;6.070;2023-07-30T01:38:51;16.56;91.85
67748;HTU21D;54543;50.712;6.070;2023-07-30T01:41:16;16.54;91.49
67748;HTU21D;54543;50.712;6.070;2023-07-30T01:43:42;16.54;91.49
67748;HTU21D;54543;50.712;6.070;2023-07-30T01:46:07;16.56;91.72
67748;HTU21D;54543;50.712;6.070;2023-07-30T01:48:32;16.57;91.57
67748;HTU21D;54543;50.712;6.070;2023-07-30T01:50:58;16.55;91.62
67748;HTU21D;54543;50.712;6.070;2023-07-30T01:53:24;16.56;91.80
67748;HTU21D;54543;50.712;6.070;2023-07-30T01:55:49;16.57;91.82
67748;HTU21D;54543;50.712;6.070;2023-07-30T01:58:15;16.56;91.86
67748;HTU21D;54543;50.712;6.070;2023-07-30T02:00:40;16.58;91.66
67748;HTU21D;54543;50.712;6.070;2023-07-30T02:03:06;16.58;91.56
67748;HTU21D;54543;50.712;6.070;2023-07-30T02:05:32;16.57;91.43
67748;HTU21D;54543;50.712;6.070;2023-07-30T02:07:58;16.56;91.47
67748;HTU21D;54543;50.712;6.070;2023-07-30T02:10:25;16.56;91.18
67748;HTU21D;54543;50.712;6.070;2023-07-30T02:12:50;16.60;91.26
67748;HTU21D;54543;50.712;6.070;2023-07-30T02:15:16;16.61;91.03
67748;HTU21D;54543;50.712;6.070;2023-07-30T02:17:42;16.63;90.42
67748;HTU21D;54543;50.712;6.070;2023-07-30T02:20:09;16.64;90.17
67748;HTU21D;54543;50.712;6.070;2023-07-30T02:22:34;16.65;89.89
67748;HTU21D;54543;50.712;6.070;2023-07-30T02:25:00;16.61;90.02
67748;HTU21D;54543;50.712;6.070;2023-07-30T02:27:25;16.61;90.06
67748;HTU21D;54543;50.712;6.070;2023-07-30T02:29:51;16.56;89.90
67748;HTU21D;54543;50.712;6.070;2023-07-30T02:32:16;16.54;89.50
67748;HTU21D;54543;50.712;6.070;2023-07-30T02:34:42;16.49;89.70
67748;HTU21D;54543;50.712;6.070;2023-07-30T02:37:07;16.46;87.54
67748;HTU21D;54543;50.712;6.070;2023-07-30T02:39:33;16.47;87.84
67748;HTU21D;54543;50.712;6.070;2023-07-30T02:41:58;16.44;87.61
67748;HTU21D;54543;50.712;6.070;2023-07-30T02:44:24;16.42;86.77
67748;HTU21D;54543;50.712;6.070;2023-07-30T02:46:49;16.43;84.59
67748;HTU21D;54543;50.712;6.070;2023-07-30T02:49:15;16.37;84.65
67748;HTU21D;54543;50.712;6.070;2023-07-30T02:51:40;16.32;85.09
67748;HTU21D;54543;50.712;6.070;2023-07-30T02:54:07;16.27;85.49
67748;HTU21D;54543;50.712;6.070;2023-07-30T02:56:33;16.24;86.64
67748;HTU21D;54543;50.712;6.070;2023-07-30T02:58:59;16.26;84.91
67748;HTU21D;54543;50.712;6.070;2023-07-30T03:01:24;16.22;84.29
67748;HTU21D;54543;50.712;6.070;2023-07-30T03:03:50;16.18;84.23
67748;HTU21D;54543;50.712;6.070;2023-07-30T03:06:16;16.12;84.87
67748;HTU21D;54543;50.712;6.070;2023-07-30T03:08:45;16.08;85.25
67748;HTU21D;54543;50.712;6.070;2023-07-30T03:11:10;16.04;85.50
67748;HTU21D;54543;50.712;6.070;2023-07-30T03:13:36;16.06;85.41
67748;HTU21D;54543;50.712;6.070;2023-07-30T03:16:01;16.03;85.19
67748;HTU21D;54543;50.712;6.070;2023-07-30T03:18:27;16.00;84.61
67748;HTU21D;54543;50.712;6.070;2023-07-30T03:21:00;15.98;84.99
67748;HTU21D;54543;50.712;6.070;2023-07-30T03:23:27;15.93;83.91
67748;HTU21D;54543;50.712;6.070;2023-07-30T03:25:52;15.89;84.46
67748;HTU21D;54543;50.712;6.070;2023-07-30T03:28:18;15.87;85.13
67748;HTU21D;54543;50.712;6.070;2023-07-30T03:30:43;15.85;85.49
67748;HTU21D;54543;50.712;6.070;2023-07-30T03:33:09;15.82;85.42
67748;HTU21D;54543;50.712;6.070;2023-07-30T03:35:34;15.81;85.48
67748;HTU21D;54543;50.712;6.070;2023-07-30T03:38:00;15.81;85.55
67748;HTU21D;54543;50.712;6.070;2023-07-30T03:40:25;15.81;85.97
67748;HTU21D;54543;50.712;6.070;2023-07-30T03:42:51;15.80;85.33
67748;HTU21D;54543;50.712;6.070;2023-07-30T03:45:17;15.78;85.02
67748;HTU21D;54543;50.712;6.070;2023-07-30T03:47:42;15.78;85.01
67748;HTU21D;54543;50.712;6.070;2023-07-30T03:50:08;15.77;85.07
67748;HTU21D;54543;50.712;6.070;2023-07-30T03:52:33;15.75;85.41
67748;HTU21D;54543;50.712;6.070;2023-07-30T03:54:59;15.78;85.73
67748;HTU21D;54543;50.712;6.070;2023-07-30T03:57:25;15.76;85.92
67748;HTU21D;54543;50.712;6.070;2023-07-30T03:59:50;15.75;85.77
67748;HTU21D;54543;50.712;6.070;2023-07-30T04:02:15;15.76;85.61
67748;HTU21D;54543;50.712;6.070;2023-07-30T04:04:42;15.75;86.12
67748;HTU21D;54543;50.712;6.070;2023-07-30T04:07:10;15.73;86.17
67748;HTU21D;54543;50.712;6.070;2023-07-30T04:09:36;15.73;86.27
67748;HTU21D;54543;50.712;6.070;2023-07-30T04:12:02;15.75;86.19
67748;HTU21D;54543;50.712;6.070;2023-07-30T04:14:27;15.71;86.29
67748;HTU21D;54543;50.712;6.070;2023-07-30T04:16:53;15.70;86.26
67748;HTU21D;54543;50.712;6.070;2023-07-30T04:19:19;15.73;85.86
67748;HTU21D;54543;50.712;6.070;2023-07-30T04:21:44;15.73;85.72
67748;HTU21D;54543;50.712;6.070;2023-07-30T04:24:10;15.72;85.92
67748;HTU21D;54543;50.712;6.070;2023-07-30T04:26:35;15.71;85.97
67748;HTU21D;54543;50.712;6.070;2023-07-30T04:29:01;15.69;85.77
67748;HTU21D;54543;50.712;6.070;2023-07-30T04:31:26;15.69;85.72
67748;HTU21D;54543;50.712;6.070;2023-07-30T04:33:52;15.69;85.08
67748;HTU21D;54543;50.712;6.070;2023-07-30T04:36:17;15.60;85.35
67748;HTU21D;54543;50.712;6.070;2023-07-30T04:38:42;15.55;85.53
67748;HTU21D;54543;50.712;6.070;2023-07-30T04:41:08;15.46;86.09
67748;HTU21D;54543;50.712;6.070;2023-07-30T04:43:33;15.38;86.33
67748;HTU21D;54543;50.712;6.070;2023-07-30T04:45:59;15.32;86.74
67748;HTU21D;54543;50.712;6.070;2023-07-30T04:48:24;15.25;86.93
67748;HTU21D;54543;50.712;6.070;2023-07-30T04:50:50;15.21;87.63
67748;HTU21D;54543;50.712;6.070;2023-07-30T04:53:15;15.16;87.83
67748;HTU21D;54543;50.712;6.070;2023-07-30T04:55:42;15.16;88.44
67748;HTU21D;54543;50.712;6.070;2023-07-30T04:58:08;15.18;89.78
67748;HTU21D;54543;50.712;6.070;2023-07-30T05:00:33;15.24;89.20
67748;HTU21D;54543;50.712;6.070;2023-07-30T05:02:59;15.30;88.46
67748;HTU21D;54543;50.712;6.070;2023-07-30T05:05:24;15.30;88.47
67748;HTU21D;54543;50.712;6.070;2023-07-30T05:07:50;15.27;88.35
67748;HTU21D;54543;50.712;6.070;2023-07-30T05:10:15;15.26;88.37
67748;HTU21D;54543;50.712;6.070;2023-07-30T05:12:41;15.25;88.73
67748;HTU21D;54543;50.712;6.070;2023-07-30T05:15:07;15.26;88.23
67748;HTU21D;54543;50.712;6.070;2023-07-30T05:17:33;15.31;88.54
67748;HTU21D;54543;50.712;6.070;2023-07-30T05:19:58;15.38;88.23
67748;HTU21D;54543;50.712;6.070;2023-07-30T05:22:24;15.40;87.99
67748;HTU21D;54543;50.712;6.070;2023-07-30T05:24:50;15.37;87.70
67748;HTU21D;54543;50.712;6.070;2023-07-30T05:27:16;15.40;87.83
67748;HTU21D;54543;50.712;6.070;2023-07-30T05:29:42;15.39;87.82
67748;HTU21D;54543;50.712;6.070;2023-07-30T05:32:08;15.43;88.08
67748;HTU21D;54543;50.712;6.070;2023-07-30T05:34:34;15.43;87.77
67748;HTU21D;54543;50.712;6.070;2023-07-30T05:36:59;15.44;87.69
67748;HTU21D;54543;50.712;6.070;2023-07-30T05:39:25;15.46;87.70
67748;HTU21D;54543;50.712;6.070;2023-07-30T05:41:51;15.49;88.34
67748;HTU21D;54543;50.712;6.070;2023-07-30T05:44:17;15.55;87.78
67748;HTU21D;54543;50.712;6.070;2023-07-30T05:46:43;15.57;87.73
67748;HTU21D;54543;50.712;6.070;2023-07-30T05:49:08;15.62;87.76
67748;HTU21D;54543;50.712;6.070;2023-07-30T05:51:34;15.61;87.29
67748;HTU21D;54543;50.712;6.070;2023-07-30T05:54:00;15.60;88.19
67748;HTU21D;54543;50.712;6.070;2023-07-30T05:56:25;15.65;88.07
67748;HTU21D;54543;50.712;6.070;2023-07-30T05:58:51;15.68;88.01
67748;HTU21D;54543;50.712;6.070;2023-07-30T06:01:16;15.68;87.86
67748;HTU21D;54543;50.712;6.070;2023-07-30T06:03:42;15.71;87.79
67748;HTU21D;54543;50.712;6.070;2023-07-30T06:06:08;15.70;87.99
67748;HTU21D;54543;50.712;6.070;2023-07-30T06:08:33;15.71;88.00
67748;HTU21D;54543;50.712;6.070;2023-07-30T06:11:03;15.73;87.81
67748;HTU21D;54543;50.712;6.070;2023-07-30T06:13:29;15.71;87.70
67748;HTU21D;54543;50.712;6.070;2023-07-30T06:15:54;15.70;87.61
67748;HTU21D;54543;50.712;6.070;2023-07-30T06:18:20;15.69;87.46
67748;HTU21D;54543;50.712;6.070;2023-07-30T06:20:46;15.67;87.40
67748;HTU21D;54543;50.712;6.070;2023-07-30T06:23:11;15.67;87.19
67748;HTU21D;54543;50.712;6.070;2023-07-30T06:25:37;15.67;86.80
67748;HTU21D;54543;50.712;6.070;2023-07-30T06:28:04;15.63;86.54
67748;HTU21D;54543;50.712;6.070;2023-07-30T06:30:30;15.61;86.54
67748;HTU21D;54543;50.712;6.070;2023-07-30T06:32:56;15.61;86.83
67748;HTU21D;54543;50.712;6.070;2023-07-30T06:35:21;15.62;86.64
67748;HTU21D;54543;50.712;6.070;2023-07-30T06:37:47;15.62;86.73
67748;HTU21D;54543;50.712;6.070;2023-07-30T06:40:12;15.62;86.75
67748;HTU21D;54543;50.712;6.070;2023-07-30T06:42:38;15.65;86.54
67748;HTU21D;54543;50.712;6.070;2023-07-30T06:45:03;15.65;86.28
67748;HTU21D;54543;50.712;6.070;2023-07-30T06:47:29;15.62;86.09
67748;HTU21D;54543;50.712;6.070;2023-07-30T06:49:55;15.62;86.05
67748;HTU21D;54543;50.712;6.070;2023-07-30T06:52:20;15.67;85.99
67748;HTU21D;54543;50.712;6.070;2023-07-30T06:54:46;15.68;85.93
67748;HTU21D;54543;50.712;6.070;2023-07-30T06:57:11;15.69;86.03
67748;HTU21D;54543;50.712;6.070;2023-07-30T06:59:37;15.73;85.93
67748;HTU21D;54543;50.712;6.070;2023-07-30T07:02:02;15.81;86.05
67748;HTU21D;54543;50.712;6.070;2023-07-30T07:04:28;15.96;85.80
67748;HTU21D;54543;50.712;6.070;2023-07-30T07:06:53;16.00;85.62
67748;HTU21D;54543;50.712;6.070;2023-07-30T07:09:19;16.08;85.04
67748;HTU21D;54543;50.712;6.070;2023-07-30T07:11:44;16.19;85.18
67748;HTU21D;54543;50.712;6.070;2023-07-30T07:14:10;16.24;84.96
67748;HTU21D;54543;50.712;6.070;2023-07-30T07:16:36;16.31;84.90
67748;HTU21D;54543;50.712;6.070;2023-07-30T07:19:01;16.37;85.02
67748;HTU21D;54543;50.712;6.070;2023-07-30T07:21:26;16.48;84.52
67748;HTU21D;54543;50.712;6.070;2023-07-30T07:23:53;16.55;83.94
67748;HTU21D;54543;50.712;6.070;2023-07-30T07:26:18;16.61;83.81
67748;HTU21D;54543;50.712;6.070;2023-07-30T07:28:44;16.66;83.51
67748;HTU21D;54543;50.712;6.070;2023-07-30T07:31:09;16.63;82.65
67748;HTU21D;54543;50.712;6.070;2023-07-30T07:33:35;16.63;82.52
67748;HTU21D;54543;50.712;6.070;2023-07-30T07:36:04;16.62;83.04
67748;HTU21D;54543;50.712;6.070;2023-07-30T07:38:29;16.61;82.82
67748;HTU21D;54543;50.712;6.070;2023-07-30T07:40:55;16.64;82.94
67748;HTU21D;54543;50.712;6.070;2023-07-30T07:43:21;16.74;82.55
67748;HTU21D;54543;50.712;6.070;2023-07-30T07:45:46;16.80;82.78
67748;HTU21D;54543;50.712;6.070;2023-07-30T07:48:12;16.86;82.26
67748;HTU21D;54543;50.712;6.070;2023-07-30T07:50:37;16.93;80.91
67748;HTU21D;54543;50.712;6.070;2023-07-30T07:53:03;16.86;80.58
67748;HTU21D;54543;50.712;6.070;2023-07-30T07:55:28;16.77;80.98
67748;HTU21D;54543;50.712;6.070;2023-07-30T07:57:54;16.71;81.69
67748;HTU21D;54543;50.712;6.070;2023-07-30T08:00:19;16.69;82.10
67748;HTU21D;54543;50.712;6.070;2023-07-30T08:02:45;16.62;82.68
67748;HTU21D;54543;50.712;6.070;2023-07-30T08:05:11;16.64;82.09
67748;HTU21D;54543;50.712;6.070;2023-07-30T08:07:36;16.60;82.10
67748;HTU21D;54543;50.712;6.070;2023-07-30T08:10:02;16.64;82.82
67748;HTU21D;54543;50.712;6.070;2023-07-30T08:12:27;16.77;82.82
67748;HTU21D;54543;50.712;6.070;2023-07-30T08:14:53;17.00;82.75
67748;HTU21D;54543;50.712;6.070;2023-07-30T08:17:21;17.17;80.84
67748;HTU21D;54543;50.712;6.070;2023-07-30T08:19:47;17.21;79.61
67748;HTU21D;54543;50.712;6.070;2023-07-30T08:22:12;17.22;80.46
67748;HTU21D;54543;50.712;6.070;2023-07-30T08:24:39;17.19;78.69
67748;HTU21D;54543;50.712;6.070;2023-07-30T08:27:05;17.23;79.46
67748;HTU21D;54543;50.712;6.070;2023-07-30T08:29:30;17.30;79.38
67748;HTU21D;54543;50.712;6.070;2023-07-30T08:31:56;17.32;79.21
67748;HTU21D;54543;50.712;6.070;2023-07-30T08:34:22;17.44;79.62
67748;HTU21D;54543;50.712;6.070;2023-07-30T08:36:48;17.52;77.35
67748;HTU21D;54543;50.712;6.070;2023-07-30T08:39:13;17.61;78.79
67748;HTU21D;54543;50.712;6.070;2023-07-30T08:41:39;17.72;78.43
67748;HTU21D;54543;50.712;6.070;2023-07-30T08:44:06;17.70;78.14
67748;HTU21D;54543;50.712;6.070;2023-07-30T08:46:31;17.63;76.08
67748;HTU21D;54543;50.712;6.070;2023-07-30T08:48:57;17.58;77.67
67748;HTU21D;54543;50.712;6.070;2023-07-30T08:51:23;17.55;78.42
67748;HTU21D;54543;50.712;6.070;2023-07-30T08:53:51;17.49;77.63
67748;HTU21D;54543;50.712;6.070;2023-07-30T08:56:17;17.54;77.09
67748;HTU21D;54543;50.712;6.070;2023-07-30T08:58:44;17.82;77.54
67748;HTU21D;54543;50.712;6.070;2023-07-30T09:01:12;17.95;73.54
67748;HTU21D;54543;50.712;6.070;2023-07-30T09:03:39;18.07;75.76
67748;HTU21D;54543;50.712;6.070;2023-07-30T09:06:05;18.30;73.83
67748;HTU21D;54543;50.712;6.070;2023-07-30T09:08:31;18.44;74.47
67748;HTU21D;54543;50.712;6.070;2023-07-30T09:11:06;18.57;74.67
67748;HTU21D;54543;50.712;6.070;2023-07-30T09:13:39;18.74;73.38
67748;HTU21D;54543;50.712;6.070;2023-07-30T09:16:11;18.69;70.33
67748;HTU21D;54543;50.712;6.070;2023-07-30T09:18:42;18.78;70.90
67748;HTU21D;54543;50.712;6.070;2023-07-30T09:21:10;18.92;72.05
67748;HTU21D;54543;50.712;6.070;2023-07-30T09:23:44;18.95;71.38
67748;HTU21D;54543;50.712;6.070;2023-07-30T09:26:10;18.95;70.96
67748;HTU21D;54543;50.712;6.070;2023-07-30T09:28:36;19.01;70.29
67748;HTU21D;54543;50.712;6.070;2023-07-30T09:31:02;19.12;70.68
67748;HTU21D;54543;50.712;6.070;2023-07-30T09:33:28;19.20;69.72
67748;HTU21D;54543;50.712;6.070;2023-07-30T09:35:54;19.24;68.39
67748;HTU21D;54543;50.712;6.070;2023-07-30T09:38:20;19.35;67.54
67748;HTU21D;54543;50.712;6.070;2023-07-30T09:40:46;19.32;68.46
67748;HTU21D;54543;50.712;6.070;2023-07-30T09:43:15;19.32;68.57
67748;HTU21D;54543;50.712;6.070;2023-07-30T09:45:44;19.39;67.88
67748;HTU21D;54543;50.712;6.070;2023-07-30T09:48:11;19.59;68.78
67748;HTU21D;54543;50.712;6.070;2023-07-30T09:50:37;19.63;67.55
67748;HTU21D;54543;50.712;6.070;2023-07-30T09:53:03;19.69;67.47
67748;HTU21D;54543;50.712;6.070;2023-07-30T09:55:29;19.74;63.95
67748;HTU21D;54543;50.712;6.070;2023-07-30T09:57:55;19.79;66.08
67748;HTU21D;54543;50.712;6.070;2023-07-30T10:00:21;19.74;66.07
67748;HTU21D;54543;50.712;6.070;2023-07-30T10:02:47;19.97;65.12
67748;HTU21D;54543;50.712;6.070;2023-07-30T10:05:21;20.17;62.06
67748;HTU21D;54543;50.712;6.070;2023-07-30T10:07:53;20.07;64.99
67748;HTU21D;54543;50.712;6.070;2023-07-30T10:10:24;20.06;64.21
67748;HTU21D;54543;50.712;6.070;2023-07-30T10:12:51;20.27;62.06
67748;HTU21D;54543;50.712;6.070;2023-07-30T10:15:19;20.48;59.57
67748;HTU21D;54543;50.712;6.070;2023-07-30T10:17:50;20.45;62.90
67748;HTU21D;54543;50.712;6.070;2023-07-30T10:20:23;20.46;60.02
67748;HTU21D;54543;50.712;6.070;2023-07-30T10:22:57;20.37;61.33
67748;HTU21D;54543;50.712;6.070;2023-07-30T10:25:48;20.34;59.61
67748;HTU21D;54543;50.712;6.070;2023-07-30T10:28:26;20.28;59.67
67748;HTU21D;54543;50.712;6.070;2023-07-30T10:30:57;20.48;62.74
67748;HTU21D;54543;50.712;6.070;2023-07-30T10:33:47;20.66;59.57
67748;HTU21D;54543;50.712;6.070;2023-07-30T10:36:17;20.86;61.67
67748;HTU21D;54543;50.712;6.070;2023-07-30T10:38:42;20.92;61.75
67748;HTU21D;54543;50.712;6.070;2023-07-30T10:41:13;20.85;60.64
67748;HTU21D;54543;50.712;6.070;2023-07-30T10:43:47;20.76;60.12
67748;HTU21D;54543;50.712;6.070;2023-07-30T10:46:17;20.49;59.99
67748;HTU21D;54543;50.712;6.070;2023-07-30T10:48:44;20.18;61.20
67748;HTU21D;54543;50.712;6.070;2023-07-30T10:51:11;19.95;62.28
67748;HTU21D;54543;50.712;6.070;2023-07-30T10:53:38;19.84;63.94
67748;HTU21D;54543;50.712;6.070;2023-07-30T10:56:09;19.88;64.57
67748;HTU21D;54543;50.712;6.070;2023-07-30T10:58:36;20.09;64.72
67748;HTU21D;54543;50.712;6.070;2023-07-30T11:01:07;20.26;62.50
67748;HTU21D;54543;50.712;6.070;2023-07-30T11:03:33;20.30;61.49
67748;HTU21D;54543;50.712;6.070;2023-07-30T11:06:00;20.25;60.35
67748;HTU21D;54543;50.712;6.070;2023-07-30T11:08:36;20.45;61.27
67748;HTU21D;54543;50.712;6.070;2023-07-30T11:11:06;20.53;60.54
67748;HTU21D;54543;50.712;6.070;2023-07-30T11:13:36;20.39;61.38
67748;HTU21D;54543;50.712;6.070;2023-07-30T11:16:08;20.14;61.80
67748;HTU21D;54543;50.712;6.070;2023-07-30T11:18:34;19.92;62.82
67748;HTU21D;54543;50.712;6.070;2023-07-30T11:21:12;20.07;63.73
67748;HTU21D;54543;50.712;6.070;2023-07-30T11:23:40;20.24;63.53
67748;HTU21D;54543;50.712;6.070;2023-07-30T11:26:08;20.35;63.15
67748;HTU21D;54543;50.712;6.070;2023-07-30T11:31:04;20.47;61.73
67748;HTU21D;54543;50.712;6.070;2023-07-30T11:33:36;20.30;62.31
67748;HTU21D;54543;50.712;6.070;2023-07-30T11:36:07;20.14;61.39
67748;HTU21D;54543;50.712;6.070;2023-07-30T11:38:35;20.03;62.43
67748;HTU21D;54543;50.712;6.070;2023-07-30T11:41:02;19.94;63.21
67748;HTU21D;54543;50.712;6.070;2023-07-30T11:43:30;19.81;63.64
67748;HTU21D;54543;50.712;6.070;2023-07-30T11:46:16;19.81;62.90
67748;HTU21D;54543;50.712;6.070;2023-07-30T11:48:47;19.81;63.55
67748;HTU21D;54543;50.712;6.070;2023-07-30T11:51:23;19.75;64.06
67748;HTU21D;54543;50.712;6.070;2023-07-30T11:53:57;19.69;64.62
67748;HTU21D;54543;50.712;6.070;2023-07-30T11:56:30;19.62;65.03
67748;HTU21D;54543;50.712;6.070;2023-07-30T11:58:58;19.54;65.45
67748;HTU21D;54543;50.712;6.070;2023-07-30T12:01:25;19.57;64.08
67748;HTU21D;54543;50.712;6.070;2023-07-30T12:03:57;19.63;64.18
67748;HTU21D;54543;50.712;6.070;2023-07-30T12:06:24;19.77;63.56
67748;HTU21D;54543;50.712;6.070;2023-07-30T12:08:50;19.96;62.51
67748;HTU21D;54543;50.712;6.070;2023-07-30T12:11:17;20.12;62.63
67748;HTU21D;54543;50.712;6.070;2023-07-30T12:13:45;20.30;60.59
67748;HTU21D;54543;50.712;6.070;2023-07-30T12:16:13;20.34;61.27
67748;HTU21D;54543;50.712;6.070;2023-07-30T12:18:39;20.36;61.49
67748;HTU21D;54543;50.712;6.070;2023-07-30T12:21:06;20.30;59.52
67748;HTU21D;54543;50.712;6.070;2023-07-30T12:23:37;20.15;60.82
67748;HTU21D;54543;50.712;6.070;2023-07-30T12:26:05;20.16;60.70
67748;HTU21D;54543;50.712;6.070;2023-07-30T12:28:33;20.34;60.35
67748;HTU21D;54543;50.712;6.070;2023-07-30T12:31:00;20.45;59.25
67748;HTU21D;54543;50.712;6.070;2023-07-30T12:33:25;20.37;57.27
67748;HTU21D;54543;50.712;6.070;2023-07-30T12:35:52;20.31;59.59
67748;HTU21D;54543;50.712;6.070;2023-07-30T12:38:18;20.36;59.93
67748;HTU21D;54543;50.712;6.070;2023-07-30T12:40:45;20.60;59.32
67748;HTU21D;54543;50.712;6.070;2023-07-30T12:43:10;20.89;59.28
67748;HTU21D;54543;50.712;6.070;2023-07-30T12:45:36;21.25;58.31
67748;HTU21D;54543;50.712;6.070;2023-07-30T12:48:01;21.33;57.45
67748;HTU21D;54543;50.712;6.070;2023-07-30T12:50:27;21.24;57.96
67748;HTU21D;54543;50.712;6.070;2023-07-30T12:52:53;21.15;56.84
67748;HTU21D;54543;50.712;6.070;2023-07-30T12:55:18;21.07;58.39
67748;HTU21D;54543;50.712;6.070;2023-07-30T12:57:44;21.06;57.84
67748;HTU21D;54543;50.712;6.070;2023-07-30T13:00:10;21.02;57.61
67748;HTU21D;54543;50.712;6.070;2023-07-30T13:02:36;20.98;56.05
67748;HTU21D;54543;50.712;6.070;2023-07-30T13:05:02;20.91;54.90
67748;HTU21D;54543;50.712;6.070;2023-07-30T13:07:29;20.79;56.35
67748;HTU21D;54543;50.712;6.070;2023-07-30T13:10:05;20.59;55.26
67748;HTU21D;54543;50.712;6.070;2023-07-30T13:12:31;20.46;56.89
67748;HTU21D;54543;50.712;6.070;2023-07-30T13:14:58;20.39;58.56
67748;HTU21D;54543;50.712;6.070;2023-07-30T13:17:23;20.51;58.60
67748;HTU21D;54543;50.712;6.070;2023-07-30T13:19:49;20.88;58.16
67748;HTU21D;54543;50.712;6.070;2023-07-30T13:22:14;21.21;57.52
67748;HTU21D;54543;50.712;6.070;2023-07-30T13:24:40;21.38;54.26
67748;HTU21D;54543;50.712;6.070;2023-07-30T13:27:06;21.48;55.15
67748;HTU21D;54543;50.712;6.070;2023-07-30T13:29:31;21.46;56.48
67748;HTU21D;54543;50.712;6.070;2023-07-30T13:31:57;21.36;54.94
67748;HTU21D;54543;50.712;6.070;2023-07-30T13:34:22;21.28;55.87
67748;HTU21D;54543;50.712;6.070;2023-07-30T13:36:48;21.33;57.27
67748;HTU21D;54543;50.712;6.070;2023-07-30T13:39:14;21.36;57.26
67748;HTU21D;54543;50.712;6.070;2023-07-30T13:41:41;21.30;56.98
67748;HTU21D;54543;50.712;6.070;2023-07-30T13:44:10;21.27;56.36
67748;HTU21D;54543;50.712;6.070;2023-07-30T13:46:37;21.32;57.66
67748;HTU21D;54543;50.712;6.070;2023-07-30T13:49:04;21.48;56.84
67748;HTU21D;54543;50.712;6.070;2023-07-30T13:51:29;21.59;56.77
67748;HTU21D;54543;50.712;6.070;2023-07-30T13:54:00;21.91;55.87
67748;HTU21D;54543;50.712;6.070;2023-07-30T13:56:32;22.11;53.63
67748;HTU21D;54543;50.712;6.070;2023-07-30T13:58:57;22.05;54.85
67748;HTU21D;54543;50.712;6.070;2023-07-30T14:01:23;21.93;56.52
67748;HTU21D;54543;50.712;6.070;2023-07-30T14:03:50;21.88;55.85
67748;HTU21D;54543;50.712;6.070;2023-07-30T14:06:17;21.78;56.73
67748;HTU21D;54543;50.712;6.070;2023-07-30T14:08:46;21.66;55.40
67748;HTU21D;54543;50.712;6.070;2023-07-30T14:11:11;21.52;55.96
67748;HTU21D;54543;50.712;6.070;2023-07-30T14:13:37;21.44;56.92
67748;HTU21D;54543;50.712;6.070;2023-07-30T14:16:02;21.50;56.80
67748;HTU21D;54543;50.712;6.070;2023-07-30T14:18:28;21.61;55.33
67748;HTU21D;54543;50.712;6.070;2023-07-30T14:20:53;21.68;56.34
67748;HTU21D;54543;50.712;6.070;2023-07-30T14:23:19;21.85;55.40
67748;HTU21D;54543;50.712;6.070;2023-07-30T14:25:44;21.93;53.75
67748;HTU21D;54543;50.712;6.070;2023-07-30T14:28:11;21.94;55.19
67748;HTU21D;54543;50.712;6.070;2023-07-30T14:30:37;21.88;55.43
67748;HTU21D;54543;50.712;6.070;2023-07-30T14:33:12;21.84;55.55
67748;HTU21D;54543;50.712;6.070;2023-07-30T14:35:39;21.92;55.07
67748;HTU21D;54543;50.712;6.070;2023-07-30T14:38:06;22.04;55.63
67748;HTU21D;54543;50.712;6.070;2023-07-30T14:40:33;22.08;56.28
67748;HTU21D;54543;50.712;6.070;2023-07-30T14:42:59;22.16;57.29
67748;HTU21D;54543;50.712;6.070;2023-07-30T14:45:25;22.40;55.47
67748;HTU21D;54543;50.712;6.070;2023-07-30T14:47:50;22.41;54.54
67748;HTU21D;54543;50.712;6.070;2023-07-30T14:50:16;22.33;55.22
67748;HTU21D;54543;50.712;6.070;2023-07-30T14:52:41;22.27;55.94
67748;HTU21D;54543;50.712;6.070;2023-07-30T14:55:07;22.37;57.97
67748;HTU21D;54543;50.712;6.070;2023-07-30T14:57:33;22.58;55.47
67748;HTU21D;54543;50.712;6.070;2023-07-30T14:59:59;22.54;54.91
67748;HTU21D;54543;50.712;6.070;2023-07-30T15:02:28;22.43;53.52
67748;HTU21D;54543;50.712;6.070;2023-07-30T15:04:54;22.80;58.71
67748;HTU21D;54543;50.712;6.070;2023-07-30T15:07:20;23.44;55.88
67748;HTU21D;54543;50.712;6.070;2023-07-30T15:09:45;23.89;56.02
67748;HTU21D;54543;50.712;6.070;2023-07-30T15:12:12;23.98;53.51
67748;HTU21D;54543;50.712;6.070;2023-07-30T15:14:38;24.14;52.16